Decoded Metar for KSYR (SYRACUSE in NY, USA) (IATA:SYR) | Meteo·Mobile Aviation Weather
aviador You're here:

KSYR Decoded Metar

SYRACUSE in NY, USA
Report Time2019-10-22 13:54:00
UTC Time2019-10-22 14:15:08
Flight Rules mvfr MVFR
Wind130° at 11 kt
W.Decomp.*RWY 15: 10.9 kt HW 1.3 kt LCW
RWY 10: 8.0 kt HW 7.5 kt RCW
Visibility9999 m
Phenomena:N/A
Clouds:Broken 029 Hf
Overcast 110 Hf
Expected CloudBase > 2,400 ft AGL from Temp-Dew spread
Ceiling2,900 ft
Temp14°C (ISA -0)
Dew Point08°C (67% RH)
AAT9.6°C
QNH1013 hPa
Density Alt545 ft
Elevation417 ft
Report Wrong Elevation
Raw Report
KSYR 221354Z 13011KT 10SM BKN029 OVC110 14/08 A2990 RMK AO2 SLP123
T01440083=

Extra information for KSYR:More info

Metar Taf Metar & Taf Last 4 Metars F.Rules Stats Wind Profile Meteogram Temp Stats Airport Information Weather charts Add Link Nearby VenuesMetar ALERT Operation Metar Decoded Social comments

AIRNAV info for KSYR